This is the latest recevied weather packets stored in our database for station/object DC4XK-10. If no packets are shown the sender has not sent any weather packets the latest 10 day(s).
| Time | Temp. | Humidity | Pressure | Rain* | Wind** | Luminosity | Snow |
|---|---|---|---|---|---|---|---|
| 1777834732 | 15.56° C | 94% | 1006.5 hPa | 0 mm | 0 m/s | - | - |
| 1777834131 | 15.56° C | 94% | 1006.7 hPa | 0 mm | 0 m/s | - | - |
| 1777833530 | 15.56° C | 93% | 1006.5 hPa | 0 mm | 0 m/s | - | - |
| 1777832931 | 15.56° C | 92% | 1006.2 hPa | 0 mm | 0 m/s | - | - |
| 1777832332 | 15.56° C | 91% | 1006.2 hPa | 0 mm | 0 m/s | - | - |
| 1777831731 | 15.56° C | 92% | 1006 hPa | 0 mm | 0 m/s | - | - |
| 1777831131 | 16.11° C | 92% | 1005.8 hPa | 0 mm | 0 m/s | - | - |
| 1777830533 | 16.11° C | 93% | 1005.7 hPa | 0 mm | 0 m/s | - | - |
| 1777829931 | 16.11° C | 93% | 1005.4 hPa | 0 mm | 0 m/s | - | - |
| 1777829331 | 16.11° C | 94% | 1005.5 hPa | 0 mm | 0 m/s | - | - |
| 1777828734 | 16.11° C | 93% | 1005.9 hPa | 0 mm | 0 m/s | - | - |
| 1777828130 | 16.67° C | 94% | 1005.6 hPa | 0 mm | 0 m/s | - | - |
| 1777827531 | 17.22° C | 94% | 1005.4 hPa | 0 mm | 0 m/s | - | - |
| 1777826934 | 17.78° C | 95% | 1005.3 hPa | 0 mm | 0 m/s | - | - |
| 1777826331 | 17.78° C | 95% | 1005.6 hPa | 0 mm | 0 m/s | - | - |
| 1777825731 | 18.33° C | 94% | 1005.5 hPa | 0 mm | 0 m/s | - | - |
| 1777825133 | 18.89° C | 93% | 1005.9 hPa | 0 mm | 0 m/s | - | - |
| 1777824532 | 19.44° C | 93% | 1005.9 hPa | 0 mm | 0 m/s | - | - |
| 1777823931 | 18.33° C | 95% | 1006 hPa | 0 mm | 0 m/s | - | - |
| 1777823331 | 18.33° C | 96% | 1006.5 hPa | 0 mm | 0 m/s | - | - |
| 1777822732 | 18.33° C | 94% | 1006.4 hPa | 0 mm | 0 m/s | - | - |
| 1777822131 | 18.33° C | 92% | 1006.5 hPa | 24.64 mm | 0 m/s | - | - |
| 1777821531 | 21.67° C | 73% | 1006.6 hPa | 0 mm | 0.45 m/s, 177° | - | - |
| 1777820931 | 22.22° C | 72% | 1006.3 hPa | 0 mm | 0 m/s | - | - |
| 1777820331 | 22.78° C | 71% | 1006.5 hPa | 0 mm | 0 m/s | - | - |
* Rain latest hour (hover to see other rain measurements)
** Current wind speed in m/s (hover to see current wind gust speed)